Time;durP1;ratioP1;P1;durP2;ratioP2;P2;SDS_P1;SDS_P2;PMS_P1;PMS_P2;Temp;Humidity;BMP_temperature;BMP_pressure;BME280_temperature;BME280_humidity;BME280_pressure;Samples;Min_cycle;Max_cycle;Signal;HPM_P1;HPM_P2
2022/03/17 00:01:26;;;;;;;25.50;14.65;;;6.80;83.80;;;;;;6244680;22;19996;-78
2022/03/17 00:03:51;;;;;;;;;;;6.80;83.70;;;;;;6244216;23;20040;-79
2022/03/17 00:06:17;;;;;;;24.90;13.98;;;6.90;81.60;;;;;;6216609;23;19890;-80
2022/03/17 00:08:43;;;;;;;;;;;7.00;80.50;;;;;;6217840;22;19988;-79
2022/03/17 00:11:09;;;;;;;24.52;14.52;;;7.00;79.60;;;;;;6217510;23;19911;-79
2022/03/17 00:13:35;;;;;;;;;;;7.10;78.20;;;;;;6243628;22;20000;-80
2022/03/17 00:16:01;;;;;;;25.83;14.60;;;7.20;76.90;;;;;;6243793;22;19888;-81
2022/03/17 00:18:30;;;;;;;23.85;12.93;;;7.10;76.90;;;;;;6245338;22;20009;-81
2022/03/17 00:20:56;;;;;;;26.25;15.30;;;7.20;75.30;;;;;;6244916;23;20008;-82
2022/03/17 00:23:22;;;;;;;27.30;16.42;;;7.20;75.50;;;;;;6219081;23;20268;-79
2022/03/17 00:25:48;;;;;;;26.05;15.43;;;7.20;75.60;;;;;;6245380;22;20015;-79
2022/03/17 00:28:14;;;;;;;31.95;16.90;;;7.20;73.90;;;;;;6220200;22;19992;-80
2022/03/17 00:30:40;;;;;;;27.58;16.33;;;7.20;73.80;;;;;;6244289;22;20008;-80
2022/03/17 00:33:05;;;;;;;;;;;7.00;74.00;;;;;;6244950;23;20015;-81
2022/03/17 00:35:42;;;;;;;28.95;15.90;;;7.00;74.00;;;;;;6244282;22;19892;-81
2022/03/17 00:38:14;;;;;;;29.45;15.55;;;7.10;73.30;;;;;;6219159;23;20031;-81
2022/03/17 00:40:41;;;;;;;44.50;18.15;;;7.00;73.20;;;;;;6243786;23;20009;-81
2022/03/17 00:43:09;;;;;;;34.00;17.23;;;7.00;73.70;;;;;;6217763;23;20061;-81
2022/03/17 00:45:35;;;;;;;33.20;17.20;;;6.80;74.50;;;;;;6243541;23;19993;-81
2022/03/17 00:48:02;;;;;;;33.95;17.60;;;6.90;73.40;;;;;;6244283;22;20044;-82
2022/03/17 00:50:28;;;;;;;35.90;17.38;;;6.90;72.80;;;;;;6218133;22;20044;-79
2022/03/17 00:52:54;;;;;;;34.10;17.38;;;7.10;71.90;;;;;;6243589;22;20005;-81
2022/03/17 00:55:21;;;;;;;;;;;7.10;71.30;;;;;;6244166;23;19999;-81
2022/03/17 00:57:47;;;;;;;33.45;16.30;;;7.10;71.10;;;;;;6243746;23;19888;-80
2022/03/17 01:00:14;;;;;;;33.55;16.70;;;7.00;71.60;;;;;;6243352;23;20007;-80
2022/03/17 01:02:48;;;;;;;33.75;17.45;;;7.00;71.00;;;;;;6217663;23;19992;-80
2022/03/17 01:05:15;;;;;;;27.27;17.05;;;7.00;70.60;;;;;;6243334;22;20072;-80
2022/03/17 01:07:41;;;;;;;30.02;18.58;;;7.00;70.00;;;;;;6243379;23;19995;-80
2022/03/17 01:10:13;;;;;;;29.17;17.40;;;6.90;69.70;;;;;;6242679;23;20000;-79
2022/03/17 01:12:39;;;;;;;37.78;18.77;;;6.80;69.70;;;;;;6218228;22;19993;-78
2022/03/17 01:15:05;;;;;;;26.65;16.95;;;6.80;69.40;;;;;;6219099;23;19999;-80
2022/03/17 01:17:32;;;;;;;32.03;18.35;;;6.80;69.10;;;;;;6245374;22;20000;-77
2022/03/17 01:19:58;;;;;;;35.50;18.83;;;6.70;69.30;;;;;;6244662;22;20036;-80
2022/03/17 01:22:23;;;;;;;35.38;18.33;;;6.60;70.00;;;;;;6245414;22;20009;-81
2022/03/17 01:24:51;;;;;;;32.83;19.58;;;6.70;69.30;;;;;;6219595;23;19993;-79
2022/03/17 01:27:20;;;;;;;30.13;17.60;;;6.50;69.70;;;;;;6244778;22;20035;-80
2022/03/17 01:29:53;;;;;;;34.38;19.52;;;6.50;70.30;;;;;;6219101;23;20075;-79
2022/03/17 01:32:20;;;;;;;32.97;18.48;;;6.40;69.80;;;;;;6245033;22;20005;-80
2022/03/17 01:34:47;;;;;;;36.17;17.95;;;6.50;69.50;;;;;;6244780;22;20004;-80
2022/03/17 01:37:13;;;;;;;29.73;17.08;;;6.50;69.70;;;;;;6216325;23;19988;-80
2022/03/17 01:39:39;;;;;;;31.00;17.40;;;6.50;69.60;;;;;;6242727;23;20004;-81
2022/03/17 01:42:08;;;;;;;31.05;17.33;;;6.50;69.60;;;;;;6241622;23;19980;-80
2022/03/17 01:44:35;;;;;;;35.33;18.42;;;6.40;69.60;;;;;;6241138;23;20012;-79
2022/03/17 01:49:46;;;;;;;31.63;17.08;;;6.30;70.10;;;;;;6240983;23;20043;-80
2022/03/17 01:52:13;;;;;;;30.13;17.77;;;6.20;70.70;;;;;;6240225;23;20012;-81
2022/03/17 01:54:40;;;;;;;32.22;17.40;;;6.10;70.50;;;;;;6215618;23;20087;-79
2022/03/17 01:57:09;;;;;;;31.50;17.00;;;6.20;70.30;;;;;;6214484;23;19993;-80
2022/03/17 01:59:37;;;;;;;30.08;16.40;;;6.30;68.40;;;;;;6213830;23;20049;-79
2022/03/17 02:02:08;;;;;;;30.17;18.17;;;6.30;68.80;;;;;;6213182;23;20008;-79
2022/03/17 02:04:35;;;;;;;36.00;17.42;;;6.20;68.90;;;;;;6214112;23;20036;-80
2022/03/17 02:07:03;;;;;;;33.65;17.92;;;6.10;69.00;;;;;;6217981;23;20011;-79
2022/03/17 02:09:29;;;;;;;34.72;18.30;;;6.00;70.10;;;;;;6244035;22;20016;-81
2022/03/17 02:14:51;;;;;;;33.75;17.27;;;5.90;70.90;;;;;;6243930;22;19915;-81
2022/03/17 02:17:17;;;;;;;32.92;19.20;;;5.80;71.00;;;;;;6243752;22;20015;-81
2022/03/17 02:19:43;;;;;;;42.65;20.45;;;5.70;71.40;;;;;;6243780;23;20045;-81
2022/03/17 02:22:14;;;;;;;38.42;20.33;;;5.70;72.40;;;;;;6244305;23;19995;-81
2022/03/17 02:27:30;;;;;;;34.45;19.77;;;5.90;68.90;;;;;;6243657;22;20068;-81
2022/03/17 02:29:56;;;;;;;31.92;18.33;;;6.00;67.40;;;;;;6242636;23;20023;-80
2022/03/17 02:32:22;;;;;;;;;;;6.10;67.00;;;;;;6243658;22;19989;-79
2022/03/17 02:34:48;;;;;;;36.10;18.55;;;6.10;66.40;;;;;;6243790;22;19968;-81
2022/03/17 02:37:15;;;;;;;;;;;6.30;65.90;;;;;;6217788;23;19992;-81
2022/03/17 02:39:42;;;;;;;37.47;20.42;;;6.10;66.70;;;;;;6217398;23;19907;-80
2022/03/17 02:42:10;;;;;;;39.28;20.13;;;6.10;68.00;;;;;;6243888;23;19988;-81
2022/03/17 02:44:37;;;;;;;35.10;20.75;;;6.00;68.00;;;;;;6242464;23;20000;-79
2022/03/17 02:47:04;;;;;;;32.17;18.65;;;5.90;68.40;;;;;;6241028;23;19980;-80
2022/03/17 02:49:30;;;;;;;35.47;19.02;;;5.80;68.30;;;;;;6215622;23;20023;-80
2022/03/17 02:51:56;;;;;;;36.60;19.92;;;6.00;68.00;;;;;;6242030;23;19993;-80
2022/03/17 02:54:22;;;;;;;39.33;20.95;;;6.00;68.30;;;;;;6242163;23;20001;-80
2022/03/17 02:56:48;;;;;;;34.53;19.08;;;6.10;67.70;;;;;;6215652;23;20008;-80
2022/03/17 02:59:14;;;;;;;33.25;19.42;;;5.90;68.10;;;;;;6215275;23;20008;-80
2022/03/17 03:01:40;;;;;;;33.72;20.20;;;5.90;69.20;;;;;;6240967;23;19981;-80
2022/03/17 03:04:06;;;;;;;32.95;19.90;;;5.80;69.10;;;;;;6240132;23;20513;-80
2022/03/17 03:06:32;;;;;;;32.97;20.13;;;5.60;70.30;;;;;;6213478;23;20446;-79
2022/03/17 03:08:59;;;;;;;;;;;5.40;71.70;;;;;;6214878;23;20005;-80
2022/03/17 03:11:25;;;;;;;40.47;20.40;;;5.30;72.90;;;;;;6240384;23;19979;-80
2022/03/17 03:13:51;;;;;;;38.35;20.70;;;5.10;74.30;;;;;;6215359;23;20048;-81
2022/03/17 03:16:17;;;;;;;33.05;19.38;;;5.10;74.90;;;;;;6216258;23;20039;-81
2022/03/17 03:18:44;;;;;;;35.10;19.98;;;5.10;74.50;;;;;;6242301;22;20085;-81
2022/03/17 03:21:10;;;;;;;36.65;20.23;;;5.20;73.20;;;;;;6216337;23;20035;-81
2022/03/17 03:23:37;;;;;;;36.03;20.00;;;5.10;72.70;;;;;;6216528;23;20001;-80
2022/03/17 03:26:02;;;;;;;35.90;21.20;;;5.10;72.90;;;;;;6215994;23;20043;-81
2022/03/17 03:28:28;;;;;;;41.00;22.23;;;5.00;74.20;;;;;;6242713;22;19988;-81
2022/03/17 03:30:54;;;;;;;35.47;19.88;;;4.90;75.50;;;;;;6217384;23;20017;-81
2022/03/17 03:33:21;;;;;;;32.00;19.25;;;4.80;76.90;;;;;;6243555;23;20024;-82
2022/03/17 03:38:31;;;;;;;43.83;22.52;;;4.50;80.50;;;;;;6243293;23;20027;-81
2022/03/17 03:40:59;;;;;;;;;;;4.30;84.10;;;;;;6244039;23;20032;-81
2022/03/17 03:43:25;;;;;;;38.25;21.15;;;4.20;84.80;;;;;;6242758;23;19892;-82
2022/03/17 03:45:50;;;;;;;39.97;21.77;;;4.10;86.40;;;;;;6243453;23;19989;-82
2022/03/17 03:48:17;;;;;;;36.28;19.85;;;4.10;87.40;;;;;;6243194;23;19993;-82
2022/03/17 03:50:42;;;;;;;40.50;20.60;;;3.90;90.20;;;;;;6243593;22;19997;-81
2022/03/17 03:53:09;;;;;;;40.17;21.27;;;3.70;91.50;;;;;;6243893;22;20008;-82
2022/03/17 03:55:34;;;;;;;36.53;20.75;;;3.60;92.60;;;;;;6243519;22;20004;-80
2022/03/17 03:58:00;;;;;;;38.95;21.67;;;3.50;93.30;;;;;;6243570;23;19985;-80
2022/03/17 04:02:53;;;;;;;33.17;18.95;;;3.40;96.00;;;;;;6253778;22;19892;-81
2022/03/17 04:05:52;;;;;;;36.92;20.75;;;3.10;96.70;;;;;;6243681;22;20013;-81
2022/03/17 04:08:11;;;;;;;41.35;20.80;;;3.20;97.50;;;;;;6239104;23;20434;-80
2022/03/17 04:10:37;;;;;;;;;;;3.20;97.80;;;;;;6217545;23;20016;-81
2022/03/17 04:13:03;;;;;;;39.70;20.52;;;3.20;99.00;;;;;;6217991;23;19904;-81
2022/03/17 04:15:29;;;;;;;51.22;24.40;;;3.10;98.60;;;;;;6245012;22;20035;-79
2022/03/17 04:17:55;;;;;;;;;;;3.10;99.90;;;;;;6245738;22;19984;-79
2022/03/17 04:20:22;;;;;;;46.05;21.30;;;3.00;99.90;;;;;;6245374;23;19888;-80
2022/03/17 04:22:48;;;;;;;45.97;22.35;;;3.00;99.90;;;;;;6219741;22;20024;-75
2022/03/17 04:25:14;;;;;;;;;;;3.00;99.90;;;;;;6246491;22;20000;-81
2022/03/17 04:27:40;;;;;;;47.80;23.60;;;3.00;99.90;;;;;;6220173;23;19899;-79
2022/03/17 04:30:07;;;;;;;51.00;24.63;;;3.10;99.90;;;;;;6220025;22;20012;-80
2022/03/17 04:32:32;;;;;;;53.35;27.13;;;3.10;99.00;;;;;;6219789;23;19989;-79
2022/03/17 04:34:58;;;;;;;;;;;3.30;98.30;;;;;;6245926;22;20009;-79
2022/03/17 04:37:24;;;;;;;38.35;21.58;;;3.30;97.50;;;;;;6246014;22;19888;-76
2022/03/17 04:39:49;;;;;;;;;;;3.40;96.70;;;;;;6221041;22;20057;-78
2022/03/17 04:42:15;;;;;;;41.53;21.45;;;3.50;95.40;;;;;;6245782;22;19919;-78
2022/03/17 04:44:41;;;;;;;37.08;20.48;;;3.70;94.20;;;;;;6220610;23;19989;-78
2022/03/17 04:47:09;;;;;;;;;;;3.70;92.40;;;;;;6246507;22;20008;-80
2022/03/17 04:49:35;;;;;;;39.03;21.30;;;3.70;92.60;;;;;;6220054;23;19926;-74
2022/03/17 04:52:00;;;;;;;;;;;3.70;92.60;;;;;;6246148;22;19992;-75
2022/03/17 04:54:26;;;;;;;45.33;22.88;;;3.80;92.60;;;;;;6245875;22;19895;-75
2022/03/17 04:56:52;;;;;;;;;;;3.80;93.00;;;;;;6220553;23;19989;-78
2022/03/17 04:59:20;;;;;;;45.10;23.35;;;3.70;93.50;;;;;;6245844;22;19915;-77
2022/03/17 05:01:46;;;;;;;49.22;24.33;;;3.70;93.80;;;;;;6245708;22;20068;-80
2022/03/17 05:04:12;;;;;;;48.85;25.50;;;3.80;94.00;;;;;;6220053;22;20008;-77
2022/03/17 05:06:38;;;;;;;;;;;3.80;93.80;;;;;;6246194;22;19996;-77
2022/03/17 05:09:05;;;;;;;45.65;23.92;;;3.90;94.30;;;;;;6245977;22;19896;-75
2022/03/17 05:11:32;;;;;;;44.75;23.08;;;3.90;94.60;;;;;;6245610;22;20019;-80
2022/03/17 05:13:58;;;;;;;45.97;22.55;;;3.90;95.50;;;;;;6219816;22;20052;-78
2022/03/17 05:16:23;;;;;;;46.00;24.15;;;3.90;96.20;;;;;;6245670;22;20052;-78
2022/03/17 05:18:51;;;;;;;46.72;22.63;;;4.00;96.90;;;;;;6245241;22;20019;-77
2022/03/17 05:21:19;;;;;;;47.40;23.73;;;3.90;97.00;;;;;;6218745;22;19992;-80
2022/03/17 05:23:44;;;;;;;35.30;19.15;;;3.90;98.40;;;;;;6219440;22;20013;-79
2022/03/17 05:26:10;;;;;;;27.75;16.13;;;3.90;99.90;;;;;;6219791;23;20019;-80
2022/03/17 05:28:36;;;;;;;;;;;4.10;99.90;;;;;;6246283;22;19999;-77
2022/03/17 05:31:02;;;;;;;26.98;13.88;;;4.40;99.90;;;;;;6245406;22;19919;-79
2022/03/17 05:33:28;;;;;;;;;;;4.90;99.90;;;;;;6246298;22;19984;-76
2022/03/17 05:35:53;;;;;;;26.80;15.18;;;5.40;99.90;;;;;;6244969;23;19895;-77
2022/03/17 05:38:20;;;;;;;29.75;13.18;;;5.60;99.90;;;;;;6245775;22;19985;-77
2022/03/17 05:40:46;;;;;;;26.73;14.07;;;6.10;97.90;;;;;;6220009;22;19997;-76
2022/03/17 05:43:12;;;;;;;;;;;6.20;96.20;;;;;;6219429;22;20056;-78
2022/03/17 05:45:40;;;;;;;29.15;15.13;;;6.40;94.90;;;;;;6219494;22;19888;-78
2022/03/17 05:48:06;;;;;;;31.75;16.95;;;6.40;94.50;;;;;;6219892;22;20023;-75
2022/03/17 05:50:37;;;;;;;25.95;15.15;;;6.50;93.70;;;;;;6245503;22;20021;-79
2022/03/17 05:53:04;;;;;;;28.38;15.55;;;6.60;93.10;;;;;;6244132;23;19988;-79
2022/03/17 05:55:29;;;;;;;39.80;16.70;;;6.70;92.20;;;;;;6244237;22;20000;-79
2022/03/17 05:57:59;;;;;;;27.50;16.40;;;6.80;91.80;;;;;;6216671;22;20005;-78
2022/03/17 06:00:26;;;;;;;25.98;15.20;;;7.10;90.20;;;;;;6218563;22;20035;-80
2022/03/17 06:02:53;;;;;;;25.83;14.48;;;7.30;87.00;;;;;;6243994;23;19988;-80
2022/03/17 06:05:19;;;;;;;26.40;15.60;;;7.70;82.70;;;;;;6239246;23;20017;-77
2022/03/17 06:07:50;;;;;;;28.00;15.65;;;7.80;82.00;;;;;;6231923;23;20001;-76
2022/03/17 06:10:22;;;;;;;28.88;15.68;;;7.90;80.40;;;;;;6233649;23;20012;-76
2022/03/17 06:12:49;;;;;;;26.10;16.33;;;8.20;78.90;;;;;;6207975;23;20065;-77
2022/03/17 06:15:15;;;;;;;26.95;16.63;;;8.20;78.20;;;;;;6211829;23;20134;-77
2022/03/17 06:17:50;;;;;;;30.88;18.48;;;8.40;77.00;;;;;;6212984;23;20001;-78
2022/03/17 06:20:23;;;;;;;30.33;17.00;;;8.50;75.00;;;;;;6209648;23;20031;-78
2022/03/17 06:22:51;;;;;;;28.02;18.42;;;8.60;74.00;;;;;;6236629;23;20004;-78
2022/03/17 06:25:19;;;;;;;30.48;18.63;;;8.70;73.20;;;;;;6236170;23;20009;-78
2022/03/17 06:27:46;;;;;;;37.55;20.27;;;8.70;73.30;;;;;;6227687;23;20004;-76
2022/03/17 06:30:18;;;;;;;30.63;18.17;;;8.90;71.20;;;;;;6224229;23;20012;-78
2022/03/17 06:32:45;;;;;;;37.78;21.20;;;9.00;70.60;;;;;;6225432;23;20283;-77
2022/03/17 06:35:14;;;;;;;37.80;21.42;;;9.20;68.90;;;;;;6228790;23;20006;-77
2022/03/17 06:37:41;;;;;;;52.63;30.00;;;9.30;68.80;;;;;;6233865;23;20079;-78
2022/03/17 06:40:07;;;;;;;70.93;36.63;;;9.60;66.10;;;;;;6196391;23;20098;-78
2022/03/17 06:42:33;;;;;;;60.72;34.85;;;9.70;66.50;;;;;;6201325;23;20013;-78
2022/03/17 06:44:59;;;;;;;;;;;9.90;64.30;;;;;;6206330;23;20005;-79
2022/03/17 06:47:24;;;;;;;54.95;29.15;;;10.30;63.10;;;;;;6232946;23;19903;-79
2022/03/17 06:49:51;;;;;;;41.60;26.23;;;10.50;62.20;;;;;;6207244;23;20004;-78
2022/03/17 06:52:17;;;;;;;46.63;26.52;;;10.70;61.60;;;;;;6233406;23;20005;-79
2022/03/17 06:54:43;;;;;;;;;;;10.80;60.30;;;;;;6208152;23;20051;-79
2022/03/17 06:57:08;;;;;;;43.75;25.60;;;11.20;58.80;;;;;;6232389;23;19900;-79
2022/03/17 06:59:34;;;;;;;;;;;11.40;58.60;;;;;;6234070;23;19991;-78
2022/03/17 07:02:00;;;;;;;37.45;24.02;;;11.50;57.20;;;;;;6232531;23;19927;-78
2022/03/17 07:04:25;;;;;;;;;;;11.20;57.50;;;;;;6232481;23;20477;-78
2022/03/17 07:06:51;;;;;;;42.05;25.10;;;11.30;57.20;;;;;;6203443;23;19900;-78
2022/03/17 07:09:16;;;;;;;;;;;11.50;56.80;;;;;;6206713;23;20076;-78
2022/03/17 07:11:44;;;;;;;37.28;24.92;;;11.90;55.50;;;;;;6229721;23;19904;-78
2022/03/17 07:14:10;;;;;;;42.50;26.58;;;12.10;54.60;;;;;;6233958;23;20001;-78
2022/03/17 07:16:35;;;;;;;33.63;21.80;;;12.20;54.90;;;;;;6234248;23;20008;-78
2022/03/17 07:19:01;;;;;;;;;;;12.50;54.10;;;;;;6210410;23;20012;-79
2022/03/17 07:21:27;;;;;;;34.50;20.73;;;12.80;52.60;;;;;;6233559;23;19896;-79
2022/03/17 07:23:52;;;;;;;;;;;12.90;51.90;;;;;;6210174;23;20011;-79
2022/03/17 07:26:18;;;;;;;47.30;24.40;;;12.70;52.20;;;;;;6204123;23;20329;-79
2022/03/17 07:28:44;;;;;;;35.10;23.23;;;12.40;53.00;;;;;;6209321;23;20008;-79
2022/03/17 07:31:09;;;;;;;;;;;12.70;52.80;;;;;;6236676;23;20028;-79
2022/03/17 07:33:38;;;;;;;48.00;25.80;;;12.60;52.20;;;;;;6236110;23;19934;-79
2022/03/17 07:36:04;;;;;;;36.20;24.60;;;12.50;52.00;;;;;;6239209;23;20007;-79
2022/03/17 07:38:30;;;;;;;40.63;24.13;;;12.30;52.50;;;;;;6237651;23;19999;-79
2022/03/17 07:40:55;;;;;;;;;;;13.10;50.70;;;;;;6236000;23;20013;-79
2022/03/17 07:43:23;;;;;;;46.35;24.45;;;12.80;49.90;;;;;;6238774;23;19883;-79
2022/03/17 07:45:49;;;;;;;42.42;25.60;;;12.70;50.30;;;;;;6238657;23;20004;-79
2022/03/17 07:48:15;;;;;;;46.13;28.25;;;12.70;49.90;;;;;;6241249;23;20320;-80
2022/03/17 07:50:41;;;;;;;;;;;12.90;49.70;;;;;;6217607;23;20016;-77
2022/03/17 07:53:06;;;;;;;46.45;27.85;;;12.60;49.40;;;;;;6216991;23;19939;-79
2022/03/17 07:55:32;;;;;;;;;;;13.30;48.50;;;;;;6240482;23;20073;-79
2022/03/17 07:57:58;;;;;;;48.03;31.30;;;13.60;47.50;;;;;;6212999;23;19973;-78
2022/03/17 08:00:24;;;;;;;;;;;13.70;46.90;;;;;;6242375;23;20027;-79
2022/03/17 08:02:49;;;;;;;60.92;32.55;;;13.50;47.10;;;;;;6215238;23;19884;-79
2022/03/17 08:05:15;;;;;;;;;;;13.70;46.70;;;;;;6237525;23;20020;-79
2022/03/17 08:07:41;;;;;;;41.50;27.58;;;13.50;45.90;;;;;;6211440;23;19904;-79
2022/03/17 08:10:07;;;;;;;;;;;13.40;47.10;;;;;;6238449;23;20009;-79
2022/03/17 08:12:34;;;;;;;47.83;31.02;;;13.40;47.40;;;;;;6214977;23;19952;-79
2022/03/17 08:15:01;;;;;;;52.67;31.08;;;13.00;47.60;;;;;;6217389;23;20032;-79
2022/03/17 08:17:27;;;;;;;49.28;30.85;;;13.40;48.10;;;;;;6218840;23;20025;-78
2022/03/17 08:19:53;;;;;;;51.10;32.03;;;13.80;46.50;;;;;;6245173;22;20008;-79
2022/03/17 08:22:19;;;;;;;;;;;14.30;45.70;;;;;;6219102;23;19999;-79
2022/03/17 08:24:44;;;;;;;54.90;34.63;;;14.20;45.10;;;;;;6218431;23;19888;-79
2022/03/17 08:27:10;;;;;;;;;;;14.40;44.10;;;;;;6244176;22;19997;-79
2022/03/17 08:29:38;;;;;;;42.17;27.08;;;14.30;44.40;;;;;;6242196;23;19904;-78
2022/03/17 08:32:05;;;;;;;45.03;28.52;;;13.80;45.50;;;;;;6218671;23;20005;-79
2022/03/17 08:34:32;;;;;;;59.17;35.40;;;13.50;46.70;;;;;;6239562;23;19989;-78
2022/03/17 08:36:59;;;;;;;60.25;32.67;;;13.40;46.50;;;;;;6240416;23;20012;-79
2022/03/17 08:39:26;;;;;;;57.35;33.08;;;13.50;46.70;;;;;;6214544;23;20012;-79
2022/03/17 08:41:52;;;;;;;64.97;32.28;;;13.50;45.80;;;;;;6213599;23;20095;-79
2022/03/17 08:44:19;;;;;;;45.90;28.65;;;13.80;45.30;;;;;;6235843;23;20261;-78
2022/03/17 08:49:30;;;;;;;62.42;37.83;;;13.70;45.10;;;;;;6232256;23;20028;-79
2022/03/17 08:51:56;;;;;;;;;;;13.30;46.50;;;;;;6208416;23;20005;-78
2022/03/17 08:54:24;;;;;;;43.72;28.25;;;13.70;46.00;;;;;;6203674;23;19904;-78
2022/03/17 08:56:51;;;;;;;35.13;23.25;;;13.80;45.60;;;;;;6233189;23;19997;-78
2022/03/17 08:59:17;;;;;;;43.08;29.40;;;14.00;45.90;;;;;;6205653;23;20015;-79
2022/03/17 09:01:44;;;;;;;41.95;26.33;;;13.90;45.70;;;;;;6237278;23;20053;-78
2022/03/17 09:04:14;;;;;;;35.72;22.63;;;13.90;46.10;;;;;;6208668;23;20016;-80
2022/03/17 09:06:43;;;;;;;41.13;25.73;;;14.20;44.80;;;;;;6238011;23;20020;-79
2022/03/17 09:09:09;;;;;;;34.67;23.20;;;13.90;46.00;;;;;;6214705;23;19981;-77
2022/03/17 09:11:38;;;;;;;43.65;22.38;;;14.00;46.40;;;;;;6209846;23;20011;-77
2022/03/17 09:14:04;;;;;;;36.17;22.73;;;14.30;45.30;;;;;;6237922;22;20012;-79
2022/03/17 09:16:29;;;;;;;;;;;14.50;44.30;;;;;;6209800;23;20005;-78
2022/03/17 09:18:56;;;;;;;35.92;22.67;;;14.90;42.80;;;;;;6237980;22;19910;-79
2022/03/17 09:21:22;;;;;;;35.10;21.60;;;14.00;44.10;;;;;;6240240;23;20008;-78
2022/03/17 09:23:48;;;;;;;;;;;14.20;44.40;;;;;;6240684;23;20012;-78
2022/03/17 09:26:14;;;;;;;29.85;20.88;;;14.10;44.40;;;;;;6240406;23;19895;-78
2022/03/17 09:28:40;;;;;;;28.63;18.83;;;14.00;45.10;;;;;;6212022;23;19984;-78
2022/03/17 09:31:05;;;;;;;;;;;15.10;42.50;;;;;;6236785;23;20052;-79
2022/03/17 09:33:31;;;;;;;32.22;21.08;;;15.20;41.20;;;;;;6240785;23;19904;-79
2022/03/17 09:35:57;;;;;;;43.78;24.67;;;14.70;42.00;;;;;;6242965;22;19981;-79
2022/03/17 09:38:24;;;;;;;42.15;26.60;;;14.60;42.10;;;;;;6240817;23;20007;-78
2022/03/17 09:40:50;;;;;;;32.53;21.70;;;14.70;41.20;;;;;;6214566;23;20009;-78
2022/03/17 09:43:18;;;;;;;;;;;14.70;41.70;;;;;;6238365;23;19993;-79
2022/03/17 09:45:45;;;;;;;49.67;29.00;;;14.70;41.70;;;;;;6214227;23;19884;-80
2022/03/17 09:48:14;;;;;;;37.35;24.67;;;14.40;42.10;;;;;;6241729;22;20024;-79
2022/03/17 09:50:42;;;;;;;40.95;24.40;;;13.90;42.90;;;;;;6217478;23;20035;-79
2022/03/17 09:53:08;;;;;;;33.15;22.25;;;14.00;43.10;;;;;;6242770;22;20032;-79
2022/03/17 09:55:36;;;;;;;39.78;23.45;;;14.10;43.20;;;;;;6238694;23;19995;-78
2022/03/17 09:58:03;;;;;;;33.20;21.40;;;14.90;41.10;;;;;;6211334;23;20084;-79
2022/03/17 10:00:47;;;;;;;35.63;20.77;;;14.80;40.80;;;;;;6212737;23;20012;-80
2022/03/17 10:03:25;;;;;;;33.83;22.40;;;14.90;41.00;;;;;;6237410;23;20020;-79
2022/03/17 10:05:52;;;;;;;34.72;22.33;;;14.80;40.70;;;;;;6235458;23;19993;-79
2022/03/17 10:08:20;;;;;;;34.83;20.77;;;14.80;41.80;;;;;;6211967;23;20016;-78
2022/03/17 10:10:46;;;;;;;34.15;19.95;;;15.40;39.80;;;;;;6235050;23;20069;-79
2022/03/17 10:13:17;;;;;;;33.17;21.90;;;15.20;39.90;;;;;;6238242;23;19988;-80
2022/03/17 10:16:07;;;;;;;35.05;20.60;;;15.10;39.10;;;;;;6214612;23;20008;-79
2022/03/17 10:18:36;;;;;;;42.60;22.58;;;15.10;39.40;;;;;;6216150;23;20007;-80
2022/03/17 10:21:12;;;;;;;28.65;20.13;;;14.80;40.50;;;;;;6217318;23;19989;-80
2022/03/17 10:23:48;;;;;;;34.53;19.93;;;14.90;40.20;;;;;;6241590;23;20004;-79
2022/03/17 10:26:33;;;;;;;32.75;21.02;;;14.80;40.00;;;;;;6216532;22;20227;-79
2022/03/17 10:29:12;;;;;;;31.13;20.67;;;15.10;39.40;;;;;;6241651;22;20009;-79
2022/03/17 10:31:56;;;;;;;30.50;20.48;;;14.80;39.90;;;;;;6213418;23;19993;-79
2022/03/17 10:34:26;;;;;;;32.15;21.52;;;14.90;39.70;;;;;;6233097;23;20004;-79
2022/03/17 10:37:08;;;;;;;32.25;22.13;;;14.50;39.80;;;;;;6210469;23;20036;-79
2022/03/17 10:39:42;;;;;;;35.10;22.35;;;13.80;40.50;;;;;;6237882;23;19996;-79
2022/03/17 10:42:22;;;;;;;37.58;22.10;;;13.50;41.30;;;;;;6242216;23;20023;-79
2022/03/17 10:45:00;;;;;;;35.65;21.77;;;13.00;42.90;;;;;;6243751;23;19984;-76
2022/03/17 10:47:30;;;;;;;40.60;25.25;;;12.60;44.30;;;;;;6242093;23;20024;-81
2022/03/17 10:50:01;;;;;;;43.92;23.70;;;12.50;45.20;;;;;;6240425;23;20013;-79
2022/03/17 10:52:50;;;;;;;41.20;23.88;;;12.20;46.20;;;;;;6239232;23;20004;-80
2022/03/17 10:55:26;;;;;;;39.70;23.83;;;12.10;46.20;;;;;;6240074;23;19991;-79
2022/03/17 10:57:58;;;;;;;36.58;23.15;;;12.10;45.80;;;;;;6215045;23;20012;-80
2022/03/17 11:00:28;;;;;;;36.00;22.20;;;11.80;45.30;;;;;;6241989;23;20008;-80
2022/03/17 11:02:59;;;;;;;38.90;22.40;;;11.90;46.60;;;;;;6242098;22;19988;-80
2022/03/17 11:05:29;;;;;;;34.85;21.13;;;11.80;46.50;;;;;;6242759;23;20012;-80
2022/03/17 11:07:57;;;;;;;37.65;23.33;;;11.80;46.60;;;;;;6217229;23;19993;-80
2022/03/17 11:10:24;;;;;;;34.05;21.30;;;12.00;46.40;;;;;;6214745;23;20001;-78
2022/03/17 11:12:50;;;;;;;34.30;21.27;;;11.90;45.20;;;;;;6243564;22;19988;-78
2022/03/17 11:15:29;;;;;;;;;;;11.80;45.40;;;;;;6244915;22;20003;-77
2022/03/17 11:18:06;;;;;;;39.45;23.55;;;11.60;45.50;;;;;;6244382;23;19936;-80
2022/03/17 11:20:32;;;;;;;43.22;22.45;;;11.60;46.90;;;;;;6244601;22;19996;-79
2022/03/17 11:23:22;;;;;;;46.47;21.77;;;11.50;46.90;;;;;;6246072;22;20000;-78
2022/03/17 11:25:56;;;;;;;38.63;23.30;;;11.80;46.70;;;;;;6221021;23;20061;-79
2022/03/17 11:28:37;;;;;;;42.60;21.75;;;11.70;45.80;;;;;;6246686;22;19981;-77
2022/03/17 11:31:05;;;;;;;37.60;23.15;;;12.00;45.00;;;;;;6246536;22;19999;-80
2022/03/17 11:33:32;;;;;;;39.00;21.85;;;12.00;44.90;;;;;;6246565;22;20000;-79
2022/03/17 11:36:01;;;;;;;40.10;23.27;;;12.00;45.30;;;;;;6246741;22;20007;-80
2022/03/17 11:38:30;;;;;;;37.65;23.73;;;11.90;44.90;;;;;;6246850;22;19981;-77
2022/03/17 11:41:08;;;;;;;35.08;22.02;;;11.90;45.70;;;;;;6246882;22;20005;-77
2022/03/17 11:43:41;;;;;;;36.63;21.30;;;11.70;45.70;;;;;;6220727;22;19993;-79
2022/03/17 11:46:18;;;;;;;41.97;20.52;;;11.80;46.20;;;;;;6246675;22;20024;-78
2022/03/17 11:48:46;;;;;;;35.92;22.52;;;12.00;45.10;;;;;;6246594;22;19989;-79
2022/03/17 11:51:15;;;;;;;33.60;21.00;;;11.80;44.80;;;;;;6220929;23;20001;-80
2022/03/17 11:54:07;;;;;;;41.35;22.60;;;11.80;45.10;;;;;;6220856;23;19988;-77
2022/03/17 13:35:24;;;;;;;35.28;17.92;;;11.50;43.20;;;;;;6173845;23;20021;-78
2022/03/17 13:37:50;;;;;;;37.58;20.42;;;11.40;43.60;;;;;;6243697;22;19997;-81
2022/03/17 13:40:18;;;;;;;37.75;20.00;;;11.10;45.10;;;;;;6242453;23;20016;-80
2022/03/17 13:43:04;;;;;;;35.75;20.05;;;11.00;45.40;;;;;;6244389;22;20016;-78
2022/03/17 13:45:36;;;;;;;31.05;20.83;;;11.30;45.40;;;;;;6244188;22;20012;-79
2022/03/17 13:48:07;;;;;;;31.45;20.35;;;11.20;45.30;;;;;;6245485;22;20005;-78
2022/03/17 13:50:40;;;;;;;29.73;19.85;;;11.10;45.30;;;;;;6219503;22;20008;-79
2022/03/17 13:53:10;;;;;;;35.03;23.45;;;11.20;45.00;;;;;;6245493;23;20015;-79
2022/03/17 14:55:17;;;;;;;35.63;22.83;;;10.80;46.30;;;;;;6256224;22;20008;-77
2022/03/17 14:57:43;;;;;;;;;;;10.80;46.70;;;;;;6245436;22;19989;-76
2022/03/17 15:00:10;;;;;;;45.95;27.95;;;10.70;46.90;;;;;;6219249;23;19894;-79
2022/03/17 15:02:35;;;;;;;35.70;21.63;;;10.50;47.20;;;;;;6244756;22;19985;-77
2022/03/17 15:05:01;;;;;;;;;;;10.50;47.50;;;;;;6245335;22;19991;-78
2022/03/17 15:07:29;;;;;;;42.88;25.55;;;10.50;47.70;;;;;;6244890;22;19910;-78
2022/03/17 15:09:55;;;;;;;42.95;24.92;;;10.40;47.80;;;;;;6244917;22;20044;-78
2022/03/17 15:12:21;;;;;;;;;;;10.50;48.10;;;;;;6244799;22;19992;-79
2022/03/17 15:14:46;;;;;;;35.72;24.13;;;10.40;47.80;;;;;;6219127;23;19911;-78
2022/03/17 15:17:13;;;;;;;34.60;21.13;;;10.40;47.80;;;;;;6244244;22;19991;-79
2022/03/17 15:19:39;;;;;;;;;;;10.40;47.10;;;;;;6243890;23;20028;-80
2022/03/17 15:22:05;;;;;;;46.55;26.42;;;10.30;47.00;;;;;;6217588;23;19888;-80
2022/03/17 15:24:31;;;;;;;36.38;22.40;;;10.30;47.00;;;;;;6217556;23;19993;-79
2022/03/17 15:30:07;;;;;;;36.08;22.25;;;10.30;46.80;;;;;;6217794;23;19993;-78
2022/03/17 15:32:30;;;;;;;38.70;22.92;;;10.10;47.90;;;;;;6243700;23;20039;-79
2022/03/17 15:34:57;;;;;;;38.28;23.27;;;9.90;48.20;;;;;;6217652;23;20020;-81
2022/03/17 15:37:23;;;;;;;37.95;22.30;;;10.00;48.80;;;;;;6217632;23;20015;-79
2022/03/17 15:39:49;;;;;;;34.55;20.80;;;9.90;49.00;;;;;;6243527;22;19993;-80
2022/03/17 15:42:15;;;;;;;34.58;22.27;;;9.80;49.10;;;;;;6243489;22;20013;-79
2022/03/17 15:44:44;;;;;;;35.13;22.27;;;10.00;49.20;;;;;;6243167;23;19992;-80
2022/03/17 15:47:10;;;;;;;34.47;20.60;;;9.90;49.30;;;;;;6243440;22;19992;-79
2022/03/17 15:49:35;;;;;;;;;;;9.90;49.50;;;;;;6243787;22;20017;-81